KGFL

Floyd Bennett Memorial Airport

Glens Falls, New York, USA
METAR KGFL 160553Z AUTO 00000KT 8SM CLR 19/19 A2995 RMK AO2 SLP139 T01940194 10261 20189 51001
Observed Flight Rules
Aug-16 @ 05:53 UTC (23 minutes ago) Visual Flight Rules
Visibility Clouds
8 miles
  • Clear skies
Temperatures Readings
Current 19°C / 66°F
Dewpoint 19°C / 66°F
Humidity 100%
Altimeter 29.95" Hg
Pressure 1013.9 hPa
Elevation 103
METAR KGFL 160553Z AUTO 00000KT 8SM CLR 19/19 A2995 RMK AO2 SLP139 T01940194 10261 20189 51001
Observed Flight Rules
Aug-16 @ 05:53 UTC
(23 minutes ago)
VFR
Clouds
  • Clear skies
Temperature Dewpoint
19°C / 66°F 19°C / 66°F
Humidity Altimeter Pressure
100% 29.95" Hg 1013.9 hPa